createdAt,value
2023-09-27T00:01:03.827Z,9.90
2023-09-27T00:03:30.446Z,9.98
2023-09-27T00:05:57.010Z,9.45
2023-09-27T00:08:23.754Z,8.93
2023-09-27T00:10:50.276Z,9.32
2023-09-27T00:13:16.698Z,9.70
2023-09-27T00:15:44.027Z,9.23
2023-09-27T00:18:11.049Z,8.98
2023-09-27T00:20:37.643Z,7.70
2023-09-27T00:23:04.701Z,6.47
2023-09-27T00:25:31.285Z,7.07
2023-09-27T00:27:57.715Z,7.25
2023-09-27T00:30:24.217Z,8.55
2023-09-27T00:32:50.854Z,7.43
2023-09-27T00:35:21.495Z,8.30
2023-09-27T00:37:49.064Z,9.00
2023-09-27T00:40:18.310Z,8.45
2023-09-27T00:42:45.216Z,7.88
2023-09-27T00:45:11.750Z,8.93
2023-09-27T00:47:38.885Z,8.68
2023-09-27T00:50:08.988Z,7.35
2023-09-27T00:52:37.191Z,7.50
2023-09-27T00:55:03.868Z,7.10
2023-09-27T00:57:30.687Z,8.50
2023-09-27T00:59:57.765Z,8.05
2023-09-27T01:02:25.496Z,8.30
2023-09-27T01:04:52.613Z,9.02
2023-09-27T01:07:19.289Z,8.32
2023-09-27T01:09:45.797Z,7.90
2023-09-27T01:12:12.502Z,8.18
2023-09-27T01:14:39.003Z,8.18
2023-09-27T01:17:12.159Z,9.02
2023-09-27T01:19:39.848Z,8.90
2023-09-27T01:22:06.301Z,8.93
2023-09-27T01:24:37.516Z,7.90
2023-09-27T01:27:08.951Z,8.25
2023-09-27T01:29:35.496Z,8.30
2023-09-27T01:32:02.032Z,9.13
2023-09-27T01:34:28.500Z,8.90
2023-09-27T01:36:55.557Z,8.68
2023-09-27T01:39:22.262Z,9.40
2023-09-27T01:41:48.712Z,9.23
2023-09-27T01:44:15.152Z,8.95
2023-09-27T01:46:41.692Z,9.30
2023-09-27T01:49:08.602Z,9.27
2023-09-27T01:51:35.126Z,9.55
2023-09-27T01:54:03.525Z,9.13
2023-09-27T01:56:30.126Z,7.65
2023-09-27T01:58:56.738Z,9.23
2023-09-27T02:01:23.266Z,8.10
2023-09-27T02:03:49.932Z,7.03
2023-09-27T02:06:16.481Z,6.78
2023-09-27T02:08:43.434Z,8.23
2023-09-27T02:11:10.570Z,8.35
2023-09-27T02:13:37.113Z,9.02
2023-09-27T02:16:03.798Z,8.88
2023-09-27T02:18:30.409Z,8.48
2023-09-27T02:20:56.870Z,8.27
2023-09-27T02:23:23.292Z,8.50
2023-09-27T02:25:59.488Z,9.38
2023-09-27T02:28:26.009Z,9.05
2023-09-27T02:30:53.054Z,8.32
2023-09-27T02:33:19.989Z,8.95
2023-09-27T02:35:46.550Z,9.05
2023-09-27T02:38:13.077Z,9.02
2023-09-27T02:40:41.281Z,8.52
2023-09-27T02:43:07.816Z,8.43
2023-09-27T02:45:35.334Z,8.27
2023-09-27T02:48:02.834Z,8.98
2023-09-27T02:50:29.689Z,7.68
2023-09-27T02:52:56.261Z,8.18
2023-09-27T02:55:22.832Z,7.07
2023-09-27T02:57:53.544Z,7.45
2023-09-27T03:00:22.451Z,7.53
2023-09-27T03:02:49.409Z,7.85
2023-09-27T03:05:16.364Z,8.32
2023-09-27T03:07:45.869Z,8.55
2023-09-27T03:10:12.793Z,7.68
2023-09-27T03:12:40.729Z,7.47
2023-09-27T03:15:13.359Z,8.05
2023-09-27T03:17:41.752Z,7.43
2023-09-27T03:20:11.735Z,7.55
2023-09-27T03:22:38.278Z,5.20
2023-09-27T03:25:05.397Z,4.88
2023-09-27T03:27:31.869Z,5.20
2023-09-27T03:29:58.382Z,4.65
2023-09-27T03:32:24.924Z,6.25
2023-09-27T03:34:54.448Z,4.70
2023-09-27T03:37:21.405Z,4.55
2023-09-27T03:39:49.870Z,4.72
2023-09-27T03:42:16.359Z,5.30
2023-09-27T03:44:42.845Z,5.47
2023-09-27T03:47:09.535Z,5.15
2023-09-27T03:49:36.067Z,4.32
2023-09-27T03:52:02.611Z,5.00
2023-09-27T03:54:29.096Z,5.30
2023-09-27T03:56:55.607Z,5.20
2023-09-27T03:59:22.122Z,5.43
2023-09-27T04:01:48.594Z,5.63
2023-09-27T04:04:15.192Z,5.70
2023-09-27T04:06:41.721Z,5.85
2023-09-27T04:09:09.483Z,5.50
2023-09-27T04:11:36.042Z,4.90
2023-09-27T04:14:02.597Z,5.00
2023-09-27T04:16:31.977Z,5.18
2023-09-27T04:18:59.682Z,5.43
2023-09-27T04:21:26.838Z,5.82
2023-09-27T04:24:00.798Z,6.00
2023-09-27T04:26:27.954Z,6.22
2023-09-27T04:28:54.737Z,5.90
2023-09-27T04:31:21.408Z,6.18
2023-09-27T04:33:48.489Z,6.50
2023-09-27T04:36:19.197Z,6.38
2023-09-27T04:38:46.889Z,5.80
2023-09-27T04:41:18.256Z,5.43
2023-09-27T04:43:45.862Z,5.97
2023-09-27T04:46:15.635Z,5.53
2023-09-27T04:48:42.098Z,5.20
2023-09-27T04:51:09.034Z,5.30
2023-09-27T04:53:38.494Z,4.82
2023-09-27T04:56:07.278Z,4.93
2023-09-27T04:58:35.242Z,4.47
2023-09-27T05:01:03.541Z,4.10
2023-09-27T05:03:30.149Z,4.68
2023-09-27T05:05:56.676Z,5.00
2023-09-27T05:08:23.191Z,4.97
2023-09-27T05:10:49.667Z,4.90
2023-09-27T05:13:16.175Z,5.40
2023-09-27T05:15:42.735Z,5.07
2023-09-27T05:18:09.251Z,5.05
2023-09-27T05:20:36.907Z,5.32
2023-09-27T05:23:03.793Z,5.68
2023-09-27T05:25:30.366Z,6.30
2023-09-27T05:27:58.173Z,5.45
2023-09-27T05:30:24.752Z,5.13
2023-09-27T05:32:51.401Z,5.40
2023-09-27T05:35:18.004Z,5.47
2023-09-27T05:37:45.813Z,5.68
2023-09-27T05:40:13.096Z,4.82
2023-09-27T05:42:40.248Z,5.55
2023-09-27T05:45:11.508Z,5.88
2023-09-27T05:47:38.887Z,5.45
2023-09-27T05:50:06.937Z,5.83
2023-09-27T05:52:34.378Z,5.97
2023-09-27T05:55:00.986Z,7.53
2023-09-27T05:57:27.530Z,7.15
2023-09-27T05:59:54.783Z,7.80
2023-09-27T06:02:21.722Z,9.00
2023-09-27T06:04:48.643Z,8.57
2023-09-27T06:07:16.610Z,8.45
2023-09-27T06:09:43.655Z,9.30
2023-09-27T06:12:11.579Z,8.85
2023-09-27T06:14:39.644Z,8.50
2023-09-27T06:17:07.346Z,9.00
2023-09-27T06:19:34.434Z,8.45
2023-09-27T06:22:05.171Z,8.70
2023-09-27T06:24:31.684Z,8.98
2023-09-27T06:26:59.300Z,8.87
2023-09-27T06:29:25.868Z,8.73
2023-09-27T06:31:53.164Z,9.70
2023-09-27T06:34:19.644Z,9.73
2023-09-27T06:36:49.556Z,10.70
2023-09-27T06:39:17.840Z,10.10
2023-09-27T06:41:46.176Z,9.95
2023-09-27T06:44:15.539Z,9.10
2023-09-27T06:49:13.433Z,9.10
2023-09-27T06:51:39.966Z,10.23
2023-09-27T06:54:07.130Z,10.65
2023-09-27T06:56:33.869Z,10.27
2023-09-27T06:59:00.482Z,10.10
2023-09-27T07:01:27.010Z,10.98
2023-09-27T07:03:53.536Z,10.57
2023-09-27T07:06:20.130Z,10.18
2023-09-27T07:08:53.265Z,11.30
2023-09-27T07:11:22.848Z,10.65
2023-09-27T07:13:49.358Z,11.55
2023-09-27T07:16:27.749Z,10.75
2023-09-27T07:18:54.870Z,11.50
2023-09-27T07:21:21.512Z,11.30
2023-09-27T07:23:50.368Z,11.65
2023-09-27T07:26:19.992Z,10.82
2023-09-27T07:28:46.551Z,11.23
2023-09-27T07:31:15.768Z,10.85
2023-09-27T07:33:45.455Z,11.95
2023-09-27T07:36:12.721Z,12.07
2023-09-27T07:38:40.736Z,12.23
2023-09-27T07:41:12.284Z,13.15
2023-09-27T07:43:40.156Z,13.57
2023-09-27T07:46:08.540Z,13.63
2023-09-27T07:48:40.315Z,13.45
2023-09-27T07:51:14.452Z,13.27
2023-09-27T07:53:41.457Z,13.60
2023-09-27T07:56:10.585Z,13.83
2023-09-27T07:58:38.378Z,14.07
2023-09-27T08:01:05.980Z,14.38
2023-09-27T08:03:32.888Z,14.60
2023-09-27T08:05:59.811Z,14.32
2023-09-27T08:08:26.447Z,13.53
2023-09-27T08:10:53.994Z,14.25
2023-09-27T08:13:20.876Z,14.10
2023-09-27T08:15:50.281Z,15.05
2023-09-27T08:18:17.590Z,13.68
2023-09-27T08:20:44.287Z,13.17
2023-09-27T08:23:10.845Z,12.77
2023-09-27T08:25:38.412Z,14.05
2023-09-27T08:28:07.108Z,13.60
2023-09-27T08:30:33.678Z,12.93
2023-09-27T08:33:00.507Z,14.07
2023-09-27T08:35:27.360Z,14.30
2023-09-27T08:37:53.881Z,14.45
2023-09-27T08:40:20.461Z,14.02
2023-09-27T08:42:49.105Z,14.07
2023-09-27T08:45:16.011Z,14.20
2023-09-27T08:47:46.877Z,14.27
2023-09-27T08:50:16.851Z,14.63
2023-09-27T08:52:48.841Z,13.80
2023-09-27T08:55:16.575Z,14.77
2023-09-27T08:57:48.349Z,14.50
2023-09-27T09:00:17.006Z,15.15
2023-09-27T09:02:45.107Z,15.07
2023-09-27T09:05:14.873Z,14.95
2023-09-27T09:07:44.332Z,15.02
2023-09-27T09:10:17.509Z,14.23
2023-09-27T09:12:46.049Z,14.25
2023-09-27T09:15:27.285Z,13.98
2023-09-27T09:17:58.733Z,13.38
2023-09-27T09:20:33.261Z,13.13
2023-09-27T09:23:04.696Z,13.97
2023-09-27T09:25:31.302Z,12.02
2023-09-27T09:28:05.479Z,12.57
2023-09-27T09:30:36.547Z,12.98
2023-09-27T09:33:04.462Z,12.02
2023-09-27T09:35:35.414Z,11.93
2023-09-27T09:38:02.966Z,12.60
2023-09-27T09:40:31.040Z,12.70
2023-09-27T09:42:59.703Z,12.88
2023-09-27T09:45:27.496Z,12.68
2023-09-27T09:47:54.725Z,12.17
2023-09-27T09:50:21.374Z,13.07
2023-09-27T09:52:58.814Z,12.40
2023-09-27T09:55:52.623Z,11.40
2023-09-27T09:58:30.602Z,11.02
2023-09-27T10:01:02.151Z,10.87
2023-09-27T10:03:35.144Z,10.48
2023-09-27T10:06:06.424Z,10.32
2023-09-27T10:08:35.399Z,10.30
2023-09-27T10:11:05.045Z,11.00
2023-09-27T10:13:37.127Z,11.10
2023-09-27T10:16:07.084Z,11.38
2023-09-27T10:18:37.599Z,11.30
2023-09-27T10:21:04.039Z,11.95
2023-09-27T10:23:59.200Z,11.98
2023-09-27T10:26:28.794Z,12.07
2023-09-27T10:29:17.744Z,13.25
2023-09-27T10:31:59.798Z,12.82
2023-09-27T10:34:26.546Z,12.35
2023-09-27T10:37:15.002Z,13.50
2023-09-27T10:40:20.554Z,13.97
2023-09-27T10:42:50.648Z,14.18
2023-09-27T10:45:18.410Z,14.63
2023-09-27T10:47:47.245Z,14.10
2023-09-27T10:50:14.007Z,14.00
2023-09-27T10:52:40.813Z,13.97
2023-09-27T10:55:14.478Z,13.10
2023-09-27T10:57:42.528Z,13.60
2023-09-27T11:00:13.027Z,14.35
2023-09-27T11:02:39.730Z,12.70
2023-09-27T11:05:07.912Z,13.67
2023-09-27T11:07:51.624Z,12.57
2023-09-27T11:10:39.102Z,10.68
2023-09-27T11:13:13.907Z,9.82
2023-09-27T11:15:42.174Z,9.63
2023-09-27T11:18:09.747Z,9.90
2023-09-27T11:20:46.730Z,10.30
2023-09-27T11:23:13.256Z,10.02
2023-09-27T11:25:39.826Z,9.18
2023-09-27T11:28:06.508Z,9.40
2023-09-27T11:30:36.043Z,8.97
2023-09-27T11:33:09.186Z,8.25
2023-09-27T11:35:36.112Z,7.97
2023-09-27T11:38:05.842Z,8.60
2023-09-27T11:40:37.200Z,8.02
2023-09-27T11:43:04.134Z,8.13
2023-09-27T11:45:45.935Z,6.85
2023-09-27T11:48:12.936Z,5.78
2023-09-27T11:50:39.797Z,6.00
2023-09-27T11:53:06.505Z,6.00
2023-09-27T11:55:33.145Z,5.93
2023-09-27T11:58:00.862Z,5.40
2023-09-27T12:00:28.908Z,6.90
2023-09-27T12:02:57.889Z,5.82
2023-09-27T12:05:26.226Z,5.30
2023-09-27T12:07:53.974Z,5.30
2023-09-27T12:10:20.721Z,4.82
2023-09-27T12:12:47.286Z,4.57
2023-09-27T12:15:13.764Z,4.00
2023-09-27T12:17:40.420Z,4.88
2023-09-27T12:20:13.292Z,4.10
2023-09-27T12:22:45.725Z,4.43
2023-09-27T12:25:12.676Z,4.80
2023-09-27T12:27:39.313Z,4.88
2023-09-27T12:30:06.546Z,4.40
2023-09-27T12:32:33.211Z,4.77
2023-09-27T12:34:59.844Z,4.57
2023-09-27T12:37:27.002Z,4.43
2023-09-27T12:39:53.436Z,4.80
2023-09-27T12:42:19.956Z,4.15
2023-09-27T12:44:46.428Z,3.93
2023-09-27T12:47:13.092Z,4.00
2023-09-27T12:49:40.658Z,3.85
2023-09-27T12:52:07.216Z,3.97
2023-09-27T12:54:33.707Z,4.38
2023-09-27T12:57:00.470Z,4.37
2023-09-27T12:59:27.877Z,5.03
2023-09-27T13:01:55.086Z,4.00
2023-09-27T13:04:21.917Z,3.75
2023-09-27T13:06:48.559Z,4.60
2023-09-27T13:09:18.309Z,5.03
2023-09-27T13:11:44.982Z,5.00
2023-09-27T13:14:11.689Z,5.13
2023-09-27T13:16:38.306Z,4.75
2023-09-27T13:19:04.971Z,4.63
2023-09-27T13:21:31.513Z,5.00
2023-09-27T13:23:58.001Z,4.75
2023-09-27T13:26:26.534Z,4.32
2023-09-27T13:28:53.225Z,4.55
2023-09-27T13:31:19.897Z,4.10
2023-09-27T13:33:49.116Z,4.20
2023-09-27T13:36:21.717Z,4.10
2023-09-27T13:38:50.807Z,4.05
2023-09-27T13:41:17.376Z,4.68
2023-09-27T13:43:43.840Z,3.65
2023-09-27T13:46:10.500Z,4.03
2023-09-27T13:48:37.582Z,4.18
2023-09-27T13:51:04.523Z,4.00
2023-09-27T13:53:31.251Z,3.45
2023-09-27T13:55:57.873Z,4.65
2023-09-27T13:58:24.343Z,3.97
2023-09-27T14:00:50.780Z,4.03
2023-09-27T14:03:18.673Z,4.13
2023-09-27T14:05:45.294Z,5.20
2023-09-27T14:08:12.371Z,5.35
2023-09-27T14:10:38.895Z,3.80
2023-09-27T14:13:05.404Z,4.63
2023-09-27T14:15:32.534Z,4.47
2023-09-27T14:17:59.181Z,4.50
2023-09-27T14:20:26.289Z,4.80
2023-09-27T14:22:53.508Z,5.43
2023-09-27T14:25:21.167Z,5.50
2023-09-27T14:27:48.184Z,5.13
2023-09-27T14:30:15.603Z,4.90
2023-09-27T14:32:44.245Z,5.45
2023-09-27T14:35:13.141Z,6.17
2023-09-27T14:37:40.731Z,5.43
2023-09-27T14:40:10.454Z,5.47
2023-09-27T14:42:38.770Z,4.95
2023-09-27T14:45:10.946Z,4.95
2023-09-27T14:47:43.766Z,5.50
2023-09-27T14:50:10.806Z,4.85
2023-09-27T14:52:37.370Z,4.68
2023-09-27T14:55:04.451Z,4.40
2023-09-27T14:57:31.023Z,5.32
2023-09-27T14:59:57.759Z,5.40
2023-09-27T15:02:24.332Z,4.85
2023-09-27T15:04:50.994Z,5.70
2023-09-27T15:07:20.225Z,5.53
2023-09-27T15:09:47.553Z,4.95
2023-09-27T15:12:14.043Z,5.43
2023-09-27T15:14:40.655Z,5.72
2023-09-27T15:17:07.177Z,5.28
2023-09-27T15:19:34.928Z,6.13
2023-09-27T15:22:04.435Z,5.53
2023-09-27T15:24:32.100Z,6.37
2023-09-27T15:26:58.872Z,5.47
2023-09-27T15:29:25.404Z,5.82
2023-09-27T15:31:53.445Z,5.57
2023-09-27T15:34:20.107Z,5.28
2023-09-27T15:36:47.255Z,5.70
2023-09-27T15:39:13.741Z,5.43
2023-09-27T15:41:40.225Z,5.55
2023-09-27T15:44:06.888Z,6.07
2023-09-27T15:46:40.987Z,6.05
2023-09-27T15:49:08.043Z,5.93
2023-09-27T15:51:37.611Z,6.22
2023-09-27T15:54:17.467Z,5.95
2023-09-27T15:56:45.185Z,6.78
2023-09-27T15:59:11.687Z,6.18
2023-09-27T16:01:39.191Z,6.50
2023-09-27T16:04:06.170Z,5.93
2023-09-27T16:06:32.657Z,6.88
2023-09-27T16:08:59.141Z,6.70
2023-09-27T16:11:29.872Z,6.22
2023-09-27T16:13:56.887Z,7.23
2023-09-27T16:16:23.837Z,7.05
2023-09-27T16:18:50.517Z,6.82
2023-09-27T16:21:19.468Z,6.72
2023-09-27T16:23:46.078Z,6.50
2023-09-27T16:26:13.111Z,6.63
2023-09-27T16:28:40.377Z,7.03
2023-09-27T16:31:09.550Z,6.47
2023-09-27T16:33:38.547Z,6.22
2023-09-27T16:36:05.284Z,6.47
2023-09-27T16:38:31.815Z,5.90
2023-09-27T16:40:59.330Z,6.40
2023-09-27T16:43:25.934Z,6.00
2023-09-27T16:45:52.437Z,6.38
2023-09-27T16:48:18.937Z,6.18
2023-09-27T16:50:45.570Z,6.33
2023-09-27T16:53:12.603Z,6.40
2023-09-27T16:55:39.944Z,6.85
2023-09-27T16:58:06.520Z,6.20
2023-09-27T17:00:33.173Z,6.90
2023-09-27T17:02:59.660Z,7.17
2023-09-27T17:05:26.291Z,6.28
2023-09-27T17:07:53.095Z,7.00
2023-09-27T17:10:19.610Z,6.85
2023-09-27T17:12:46.046Z,7.03
2023-09-27T17:15:12.657Z,6.97
2023-09-27T17:17:39.168Z,6.72
2023-09-27T17:20:06.537Z,6.85
2023-09-27T17:22:33.465Z,6.65
2023-09-27T17:25:01.266Z,6.82
2023-09-27T17:27:27.749Z,6.87
2023-09-27T17:29:54.353Z,7.57
2023-09-27T17:32:20.824Z,7.00
2023-09-27T17:34:47.287Z,7.05
2023-09-27T17:37:13.955Z,6.53
2023-09-27T17:39:40.503Z,7.60
2023-09-27T17:42:07.133Z,7.65
2023-09-27T17:44:33.736Z,8.00
2023-09-27T17:47:00.275Z,7.28
2023-09-27T17:49:27.417Z,7.00
2023-09-27T17:51:56.640Z,7.87
2023-09-27T17:54:23.735Z,7.53
2023-09-27T17:56:51.570Z,7.60
2023-09-27T17:59:19.426Z,8.10
2023-09-27T18:01:46.173Z,7.43
2023-09-27T18:04:12.920Z,7.77
2023-09-27T18:06:39.589Z,7.68
2023-09-27T18:09:06.163Z,7.18
2023-09-27T18:11:32.637Z,7.47
2023-09-27T18:13:59.498Z,7.90
2023-09-27T18:16:26.295Z,7.53
2023-09-27T18:18:54.840Z,8.07
2023-09-27T18:21:22.146Z,8.20
2023-09-27T18:23:51.738Z,7.97
2023-09-27T18:26:18.780Z,8.02
2023-09-27T18:28:45.552Z,8.17
2023-09-27T18:31:12.432Z,8.23
2023-09-27T18:33:39.066Z,8.50
2023-09-27T18:36:05.721Z,7.50
2023-09-27T18:38:32.580Z,8.23
2023-09-27T18:40:59.355Z,7.83
2023-09-27T18:43:25.821Z,9.20
2023-09-27T18:45:52.487Z,8.65
2023-09-27T18:48:20.035Z,8.77
2023-09-27T18:50:48.658Z,9.07
2023-09-27T18:53:15.267Z,8.37
2023-09-27T18:55:42.135Z,9.38
2023-09-27T18:58:14.790Z,8.85
2023-09-27T19:00:44.787Z,8.75
2023-09-27T19:03:13.754Z,8.68
2023-09-27T19:05:40.838Z,9.33
2023-09-27T19:08:07.716Z,10.05
2023-09-27T19:10:34.641Z,9.43
2023-09-27T19:13:01.272Z,9.40
2023-09-27T19:15:27.813Z,9.07
2023-09-27T19:17:57.846Z,9.50
2023-09-27T19:20:25.235Z,9.20
2023-09-27T19:22:53.891Z,9.13
2023-09-27T19:25:23.626Z,9.60
2023-09-27T19:27:51.174Z,9.13
2023-09-27T19:30:18.211Z,9.77
2023-09-27T19:32:46.142Z,9.40
2023-09-27T19:35:13.445Z,9.52
2023-09-27T19:37:40.795Z,9.10
2023-09-27T19:40:10.740Z,9.48
2023-09-27T19:42:38.000Z,8.73
2023-09-27T19:45:06.346Z,9.82
2023-09-27T19:47:35.978Z,8.40
2023-09-27T19:50:04.112Z,8.85
2023-09-27T19:52:30.960Z,9.10
2023-09-27T19:54:57.860Z,9.53
2023-09-27T19:57:24.568Z,9.20
2023-09-27T19:59:51.131Z,8.95
2023-09-27T20:02:17.829Z,9.18
2023-09-27T20:04:44.443Z,10.05
2023-09-27T20:07:11.045Z,9.63
2023-09-27T20:09:37.621Z,9.27
2023-09-27T20:12:04.451Z,10.32
2023-09-27T20:14:32.319Z,10.20
2023-09-27T20:16:59.146Z,10.10
2023-09-27T20:19:26.962Z,10.47
2023-09-27T20:21:56.311Z,10.77
2023-09-27T20:24:25.598Z,10.43
2023-09-27T20:26:52.235Z,10.68
2023-09-27T20:29:18.882Z,11.30
2023-09-27T20:31:45.440Z,10.63
2023-09-27T20:34:12.147Z,11.18
2023-09-27T20:36:38.876Z,11.43
2023-09-27T20:39:05.684Z,11.43
2023-09-27T20:41:32.303Z,11.65
2023-09-27T20:43:58.794Z,11.60
2023-09-27T20:46:25.314Z,11.98
2023-09-27T20:48:51.938Z,11.68
2023-09-27T20:51:18.590Z,10.88
2023-09-27T20:53:45.173Z,10.98
2023-09-27T20:56:12.263Z,11.47
2023-09-27T20:58:42.283Z,11.20
2023-09-27T21:01:25.133Z,10.68
2023-09-27T21:03:52.082Z,11.25
2023-09-27T21:06:28.975Z,10.32
2023-09-27T21:09:04.120Z,9.80
2023-09-27T21:11:31.414Z,10.57
2023-09-27T21:14:03.331Z,10.98
2023-09-27T21:16:32.725Z,10.60
2023-09-27T21:19:00.271Z,10.55
2023-09-27T21:21:26.863Z,9.60
2023-09-27T21:23:53.891Z,10.10
2023-09-27T21:26:21.512Z,9.75
2023-09-27T21:28:48.378Z,10.07
2023-09-27T21:31:15.112Z,9.93
2023-09-27T21:33:42.899Z,9.77
2023-09-27T21:36:09.792Z,8.70
2023-09-27T21:38:37.131Z,9.52
2023-09-27T21:41:04.160Z,8.38
2023-09-27T21:43:33.292Z,7.97
2023-09-27T21:46:00.215Z,7.70
2023-09-27T21:48:27.278Z,7.47
2023-09-27T21:50:53.840Z,7.07
2023-09-27T21:53:20.396Z,6.57
2023-09-27T21:55:47.024Z,6.25
2023-09-27T21:58:13.675Z,5.93
2023-09-27T22:00:40.284Z,6.00
2023-09-27T22:03:06.967Z,5.75
2023-09-27T22:05:33.917Z,5.78
2023-09-27T22:08:01.507Z,5.70
2023-09-27T22:10:35.493Z,6.60
2023-09-27T22:13:29.062Z,5.35
2023-09-27T22:15:56.375Z,5.47
2023-09-27T22:18:23.771Z,5.60
2023-09-27T22:20:50.758Z,5.18
2023-09-27T22:23:40.322Z,5.93
2023-09-27T22:26:16.261Z,5.68
2023-09-27T22:28:44.918Z,6.35
2023-09-27T22:31:15.638Z,5.80
2023-09-27T22:33:49.791Z,5.50
2023-09-27T22:36:16.484Z,5.77
2023-09-27T22:38:43.646Z,6.10
2023-09-27T22:41:16.144Z,6.00
2023-09-27T22:43:49.486Z,6.15
2023-09-27T22:46:16.993Z,5.78
2023-09-27T22:48:43.651Z,6.17
2023-09-27T22:51:10.198Z,6.43
2023-09-27T22:53:36.968Z,6.30
2023-09-27T22:56:05.914Z,5.60
2023-09-27T22:58:34.239Z,5.85
2023-09-27T23:01:21.283Z,5.03
2023-09-27T23:03:48.601Z,5.75
2023-09-27T23:06:16.909Z,5.75
2023-09-27T23:08:46.301Z,5.20
2023-09-27T23:11:13.588Z,5.63
2023-09-27T23:13:49.466Z,5.00
2023-09-27T23:16:30.422Z,5.00
2023-09-27T23:19:06.501Z,5.22
2023-09-27T23:21:33.331Z,4.90
2023-09-27T23:24:11.805Z,5.38
2023-09-27T23:26:53.451Z,4.63
2023-09-27T23:29:30.080Z,4.95
2023-09-27T23:32:30.964Z,3.97
2023-09-27T23:37:34.494Z,3.92
2023-09-27T23:40:02.069Z,4.50
2023-09-27T23:42:35.513Z,4.00
2023-09-27T23:45:12.201Z,4.43
2023-09-27T23:47:51.033Z,4.20
2023-09-27T23:50:18.268Z,4.05
2023-09-27T23:52:47.224Z,4.40
2023-09-27T23:55:16.280Z,4.13
2023-09-27T23:57:47.675Z,3.72
